Time;durP1;ratioP1;P1;durP2;ratioP2;P2;SDS_P1;SDS_P2;PMS_P1;PMS_P2;Temp;Humidity;BMP_temperature;BMP_pressure;BME280_temperature;BME280_humidity;BME280_pressure;Samples;Min_cycle;Max_cycle;Signal;HPM_P1;HPM_P2
2022/03/22 00:01:29;;;;;;;4.35;3.10;;;23.10;30.70;;;;;;5094809;28;20475;-64
2022/03/22 00:03:55;;;;;;;3.75;3.30;;;23.10;30.70;;;;;;5094809;28;20436;-65
2022/03/22 00:06:21;;;;;;;4.00;3.10;;;23.10;30.80;;;;;;5094475;28;20858;-65
2022/03/22 00:08:47;;;;;;;4.18;2.88;;;23.10;30.60;;;;;;5094610;28;20503;-65
2022/03/22 00:11:13;;;;;;;4.20;3.35;;;23.10;30.70;;;;;;5094492;28;20849;-66
2022/03/22 00:13:42;;;;;;;3.35;2.80;;;23.30;30.90;;;;;;5094576;28;20870;-65
2022/03/22 00:16:08;;;;;;;3.90;2.85;;;23.30;30.90;;;;;;5094115;28;20392;-65
2022/03/22 00:18:37;;;;;;;3.90;3.00;;;23.40;30.90;;;;;;5094364;28;20501;-65
2022/03/22 00:21:03;;;;;;;3.83;3.05;;;23.40;31.30;;;;;;5094344;28;20378;-65
2022/03/22 00:23:28;;;;;;;3.90;3.10;;;23.50;30.50;;;;;;5094361;28;20451;-65
2022/03/22 00:25:54;;;;;;;3.20;2.70;;;23.50;30.10;;;;;;5094222;28;20476;-65
2022/03/22 00:28:20;;;;;;;3.03;2.58;;;23.60;30.10;;;;;;5093607;28;20418;-65
2022/03/22 00:30:46;;;;;;;3.90;2.95;;;23.60;30.00;;;;;;5094049;28;20379;-64
2022/03/22 00:33:12;;;;;;;4.45;2.88;;;23.70;30.00;;;;;;5094073;28;20729;-63
2022/03/22 00:35:39;;;;;;;3.83;2.73;;;23.70;29.90;;;;;;5094153;28;20462;-66
2022/03/22 00:38:08;;;;;;;3.88;2.75;;;23.70;29.80;;;;;;5093981;28;20409;-65
2022/03/22 00:40:34;;;;;;;3.20;2.88;;;23.70;29.70;;;;;;5093786;28;20499;-65
2022/03/22 00:43:01;;;;;;;3.35;2.83;;;23.80;29.80;;;;;;5093872;28;20380;-65
2022/03/22 00:45:31;;;;;;;3.20;2.65;;;23.80;29.70;;;;;;5092658;28;20394;-64
2022/03/22 00:47:58;;;;;;;3.63;2.92;;;23.80;29.70;;;;;;5093665;28;20470;-65
2022/03/22 00:50:27;;;;;;;3.17;2.67;;;23.80;29.70;;;;;;5092179;28;20461;-65
2022/03/22 00:52:54;;;;;;;3.42;2.80;;;23.80;29.70;;;;;;5093799;28;20401;-63
2022/03/22 00:55:24;;;;;;;3.55;2.90;;;23.80;29.60;;;;;;5093710;28;20382;-63
2022/03/22 00:57:51;;;;;;;3.22;2.60;;;23.80;29.60;;;;;;5093263;28;20386;-63
2022/03/22 01:00:19;;;;;;;3.33;2.60;;;23.80;29.50;;;;;;5093172;28;20390;-65
2022/03/22 01:02:49;;;;;;;3.55;2.70;;;23.80;29.50;;;;;;5093758;28;20515;-65
2022/03/22 01:05:19;;;;;;;3.50;2.70;;;23.80;29.40;;;;;;5093524;28;20380;-66
2022/03/22 01:07:50;;;;;;;3.77;2.70;;;23.90;29.40;;;;;;5093427;28;20493;-66
2022/03/22 01:10:17;;;;;;;3.38;2.83;;;23.90;29.40;;;;;;5092987;28;20806;-65
2022/03/22 01:12:44;;;;;;;3.35;2.58;;;23.90;29.30;;;;;;5093314;28;20390;-65
2022/03/22 01:15:16;;;;;;;3.47;2.67;;;23.90;29.30;;;;;;5093308;28;20435;-63
2022/03/22 01:17:43;;;;;;;3.13;2.63;;;23.90;29.20;;;;;;5093325;28;20382;-65
2022/03/22 01:20:09;;;;;;;3.40;2.72;;;23.90;29.20;;;;;;5092992;28;20386;-64
2022/03/22 01:22:39;;;;;;;3.60;2.60;;;23.90;29.20;;;;;;5093004;28;20386;-65
2022/03/22 01:25:10;;;;;;;2.97;2.58;;;23.90;29.20;;;;;;5093169;28;20853;-66
2022/03/22 01:27:36;;;;;;;3.40;2.75;;;23.90;29.10;;;;;;5093153;28;20444;-63
2022/03/22 01:30:07;;;;;;;3.10;2.50;;;23.90;29.10;;;;;;5092984;28;20394;-65
2022/03/22 01:32:34;;;;;;;3.42;2.40;;;23.90;29.10;;;;;;5092628;28;20383;-65
2022/03/22 01:35:00;;;;;;;2.95;2.35;;;23.80;29.10;;;;;;5092797;28;20846;-63
2022/03/22 01:37:26;;;;;;;3.05;2.63;;;23.80;29.10;;;;;;5092769;28;20724;-66
2022/03/22 01:39:52;;;;;;;3.35;2.58;;;23.90;29.10;;;;;;5092880;28;20397;-66
2022/03/22 01:42:18;;;;;;;3.30;2.33;;;23.90;29.00;;;;;;5092357;28;20383;-63
2022/03/22 01:44:43;;;;;;;3.00;2.40;;;23.90;29.00;;;;;;5092726;28;20391;-63
2022/03/22 01:47:10;;;;;;;3.13;2.40;;;23.90;28.90;;;;;;5092386;28;20410;-64
2022/03/22 01:49:36;;;;;;;3.10;2.60;;;23.90;28.90;;;;;;5092491;28;20531;-62
2022/03/22 01:52:03;;;;;;;3.85;2.58;;;23.90;28.90;;;;;;5092669;28;20385;-63
2022/03/22 01:54:29;;;;;;;2.80;2.15;;;23.90;28.90;;;;;;5092127;28;20521;-66
2022/03/22 01:56:54;;;;;;;3.63;2.50;;;23.90;28.80;;;;;;5092632;28;20473;-63
2022/03/22 01:59:20;;;;;;;2.95;2.30;;;23.90;28.80;;;;;;5092383;28;20443;-64
2022/03/22 02:07:15;;;;;;;2.90;2.30;;;23.90;28.80;;;;;;5092331;28;20409;-66
2022/03/22 02:09:41;;;;;;;2.80;2.28;;;23.90;28.80;;;;;;5090375;28;20489;-65
2022/03/22 02:12:07;;;;;;;2.78;2.25;;;23.90;28.70;;;;;;5090950;28;20468;-63
2022/03/22 02:14:33;;;;;;;3.30;2.17;;;23.90;28.70;;;;;;5091762;28;20724;-63
2022/03/22 02:17:05;;;;;;;2.53;2.27;;;23.90;28.70;;;;;;5090703;28;20504;-63
2022/03/22 02:19:31;;;;;;;3.20;2.20;;;23.90;28.70;;;;;;5091707;28;20393;-65
2022/03/22 02:22:02;;;;;;;2.92;2.03;;;23.90;28.70;;;;;;5091583;28;20469;-64
2022/03/22 02:24:27;;;;;;;2.92;2.38;;;23.90;28.70;;;;;;5091638;28;20386;-63
2022/03/22 02:26:55;;;;;;;2.73;2.20;;;23.90;28.70;;;;;;5092021;28;20374;-64
2022/03/22 02:29:20;;;;;;;3.00;2.30;;;23.90;28.70;;;;;;5091989;28;20400;-62
2022/03/22 02:31:46;;;;;;;3.03;2.35;;;23.90;28.70;;;;;;5091852;28;20382;-62
2022/03/22 02:34:12;;;;;;;3.40;2.22;;;23.90;28.60;;;;;;5091908;28;20435;-64
2022/03/22 02:36:37;;;;;;;2.63;1.97;;;23.90;28.60;;;;;;5091507;28;20519;-64
2022/03/22 02:39:03;;;;;;;3.00;2.20;;;23.80;28.60;;;;;;5090252;28;20878;-66
2022/03/22 02:41:29;;;;;;;2.67;2.10;;;23.90;28.60;;;;;;5091814;28;20394;-63
2022/03/22 02:43:55;;;;;;;2.80;2.50;;;23.80;28.60;;;;;;5091896;28;20397;-65
2022/03/22 02:46:21;;;;;;;2.88;2.30;;;23.80;28.60;;;;;;5091378;28;20443;-63
2022/03/22 02:48:47;;;;;;;3.20;2.40;;;23.80;28.60;;;;;;5091574;28;20900;-62
2022/03/22 02:51:13;;;;;;;2.60;2.20;;;23.80;28.60;;;;;;5091385;28;20394;-63
2022/03/22 02:53:40;;;;;;;3.00;2.28;;;23.80;28.60;;;;;;5091661;28;20868;-64
2022/03/22 02:56:05;;;;;;;2.83;2.40;;;23.80;28.50;;;;;;5091701;28;20467;-63
2022/03/22 02:58:33;;;;;;;3.20;2.33;;;23.80;28.60;;;;;;5091148;28;20496;-65
2022/03/22 03:00:59;;;;;;;2.67;2.30;;;23.80;28.50;;;;;;5091590;28;20382;-65
2022/03/22 03:03:25;;;;;;;3.05;2.50;;;23.80;28.50;;;;;;5091567;28;20390;-62
2022/03/22 03:05:51;;;;;;;2.92;2.40;;;23.80;28.50;;;;;;5091627;28;20738;-63
2022/03/22 03:08:18;;;;;;;3.17;2.30;;;23.80;28.50;;;;;;5091252;28;20417;-62
2022/03/22 03:10:45;;;;;;;2.47;2.15;;;23.80;28.50;;;;;;5091601;28;20853;-63
2022/03/22 03:13:11;;;;;;;3.10;2.53;;;23.80;28.40;;;;;;5091419;28;20436;-65
2022/03/22 03:15:37;;;;;;;3.47;2.30;;;23.80;28.40;;;;;;5091440;28;20386;-65
2022/03/22 03:18:03;;;;;;;2.92;2.20;;;23.80;28.40;;;;;;5091490;28;20422;-66
2022/03/22 03:20:29;;;;;;;2.75;2.05;;;23.80;28.40;;;;;;5092547;28;21026;-65
2022/03/22 03:22:55;;;;;;;2.70;2.20;;;23.80;28.40;;;;;;5095325;28;20413;-65
2022/03/22 03:25:21;;;;;;;2.77;2.13;;;23.80;28.40;;;;;;5095532;28;20845;-65
2022/03/22 03:27:47;;;;;;;2.93;2.50;;;23.80;28.40;;;;;;5095474;28;20470;-63
2022/03/22 03:30:13;;;;;;;2.90;2.40;;;23.80;28.40;;;;;;5094094;28;20753;-65
2022/03/22 03:32:39;;;;;;;2.75;2.08;;;23.80;28.40;;;;;;5095013;28;20374;-62
2022/03/22 03:35:05;;;;;;;2.65;2.20;;;23.80;28.40;;;;;;5094973;28;20400;-64
2022/03/22 03:37:35;;;;;;;2.45;2.03;;;23.80;28.40;;;;;;5094508;28;20432;-63
2022/03/22 03:40:01;;;;;;;4.07;2.65;;;23.80;28.40;;;;;;5095218;28;20397;-64
2022/03/22 03:42:27;;;;;;;3.20;2.17;;;23.80;28.40;;;;;;5094675;28;20469;-65
2022/03/22 03:47:37;;;;;;;2.90;2.10;;;23.70;28.30;;;;;;5094964;28;20966;-63
2022/03/22 03:50:05;;;;;;;3.30;2.23;;;23.70;28.40;;;;;;5094956;28;20378;-65
2022/03/22 03:52:34;;;;;;;3.10;2.30;;;23.70;28.40;;;;;;5093948;28;20442;-64
2022/03/22 03:55:01;;;;;;;2.75;2.30;;;23.70;28.30;;;;;;5094780;28;20422;-63
2022/03/22 03:57:27;;;;;;;3.00;2.55;;;23.70;28.40;;;;;;5094848;28;20401;-63
2022/03/22 03:59:55;;;;;;;2.90;2.40;;;23.70;28.40;;;;;;5094837;28;20427;-65
2022/03/22 04:02:23;;;;;;;3.20;2.20;;;23.70;28.40;;;;;;5094483;28;20382;-65
2022/03/22 04:04:52;;;;;;;2.97;2.10;;;23.70;28.30;;;;;;5094476;28;20390;-65
2022/03/22 04:07:19;;;;;;;2.72;2.28;;;23.70;28.30;;;;;;5094512;28;20410;-63
2022/03/22 04:09:45;;;;;;;3.38;2.00;;;23.70;28.40;;;;;;5094716;28;20402;-63
2022/03/22 04:12:12;;;;;;;2.72;2.00;;;23.70;28.40;;;;;;5094357;28;20412;-63
2022/03/22 04:14:37;;;;;;;2.88;2.20;;;23.60;28.40;;;;;;5094194;28;20879;-63
2022/03/22 04:17:04;;;;;;;2.50;2.03;;;23.60;28.30;;;;;;5094446;28;20380;-62
2022/03/22 04:19:31;;;;;;;2.42;1.95;;;23.70;28.40;;;;;;5094445;28;20889;-65
2022/03/22 04:21:56;;;;;;;3.10;2.17;;;23.70;28.40;;;;;;5094442;28;20389;-63
2022/03/22 04:24:22;;;;;;;2.45;2.17;;;23.70;28.40;;;;;;5094090;28;20390;-65
2022/03/22 04:26:48;;;;;;;2.80;2.13;;;23.70;28.30;;;;;;5094162;28;20382;-62
2022/03/22 04:34:45;;;;;;;5.35;2.45;;;23.50;28.00;;;;;;5095832;28;20891;-65
2022/03/22 04:37:13;;;;;;;6.63;2.47;;;23.60;28.90;;;;;;5093879;28;20383;-62
2022/03/22 04:39:41;;;;;;;4.03;2.40;;;23.60;28.90;;;;;;5094079;28;20394;-62
2022/03/22 04:42:07;;;;;;;5.07;2.35;;;23.70;28.90;;;;;;5094070;28;20877;-63
2022/03/22 04:44:34;;;;;;;4.03;2.45;;;23.70;28.90;;;;;;5093389;28;20402;-65
2022/03/22 04:46:59;;;;;;;6.43;2.35;;;23.60;29.40;;;;;;5093565;28;20437;-63
2022/03/22 04:49:27;;;;;;;3.25;2.35;;;23.60;29.50;;;;;;5094017;28;20417;-64
2022/03/22 04:57:24;;;;;;;3.97;2.40;;;23.60;29.40;;;;;;5092927;28;20911;-65
2022/03/22 04:59:50;;;;;;;5.07;2.30;;;23.60;29.10;;;;;;5093821;28;20435;-62
2022/03/22 05:02:16;;;;;;;3.10;2.20;;;23.60;29.20;;;;;;5093284;28;20398;-66
2022/03/22 05:04:42;;;;;;;5.10;2.40;;;23.60;29.00;;;;;;5092297;28;20396;-62
2022/03/22 05:07:08;;;;;;;7.77;2.33;;;23.50;29.80;;;;;;5093278;28;20390;-64
2022/03/22 05:09:35;;;;;;;5.88;2.33;;;23.60;29.80;;;;;;5093271;28;20420;-63
2022/03/22 05:12:02;;;;;;;6.65;2.20;;;23.60;30.20;;;;;;5093291;28;20382;-63
2022/03/22 05:14:28;;;;;;;3.95;2.30;;;23.60;29.80;;;;;;5091677;28;20398;-63
2022/03/22 05:16:58;;;;;;;6.93;2.33;;;23.60;29.70;;;;;;5093242;28;20383;-62
2022/03/22 05:19:25;;;;;;;7.10;2.58;;;23.60;29.80;;;;;;5093330;28;20386;-63
2022/03/22 05:21:50;;;;;;;4.60;2.42;;;23.60;30.00;;;;;;5093042;28;20750;-65
2022/03/22 05:24:16;;;;;;;6.87;2.37;;;23.60;29.70;;;;;;5093138;28;20386;-63
2022/03/22 05:26:42;;;;;;;6.68;2.45;;;23.60;29.40;;;;;;5092597;28;20795;-64
2022/03/22 05:29:08;;;;;;;5.50;2.20;;;23.60;29.70;;;;;;5092863;28;20842;-63
2022/03/22 05:31:34;;;;;;;3.80;2.22;;;23.60;29.70;;;;;;5096899;28;20972;-63
2022/03/22 05:34:00;;;;;;;6.68;2.72;;;23.60;29.30;;;;;;5093365;28;20430;-62
2022/03/22 05:36:26;;;;;;;4.38;2.20;;;23.50;28.70;;;;;;5092551;28;20382;-63
2022/03/22 05:38:53;;;;;;;5.03;2.58;;;23.50;28.90;;;;;;5092540;28;20405;-63
2022/03/22 05:41:20;;;;;;;4.68;2.35;;;23.50;29.10;;;;;;5092695;28;20389;-62
2022/03/22 05:43:46;;;;;;;4.15;2.35;;;23.60;29.00;;;;;;5090999;28;20425;-62
2022/03/22 05:46:12;;;;;;;9.45;2.65;;;23.50;28.70;;;;;;5100142;28;20545;-64
2022/03/22 05:48:38;;;;;;;4.40;2.40;;;23.50;28.90;;;;;;5103080;28;20421;-62
2022/03/22 05:51:04;;;;;;;8.67;2.30;;;23.60;28.60;;;;;;5099777;28;20449;-62
2022/03/22 05:53:30;;;;;;;5.60;2.40;;;23.50;29.00;;;;;;5102623;28;20480;-64
2022/03/22 05:55:56;;;;;;;6.75;2.42;;;23.50;29.20;;;;;;5090852;28;20535;-68
2022/03/22 05:58:23;;;;;;;7.00;2.60;;;23.60;29.20;;;;;;5093003;28;20473;-65
2022/03/22 06:00:49;;;;;;;5.35;3.03;;;23.60;28.90;;;;;;5092481;28;20527;-62
2022/03/22 06:03:15;;;;;;;6.22;2.60;;;23.50;28.90;;;;;;5092164;28;20489;-67
2022/03/22 06:05:42;;;;;;;6.30;3.30;;;23.50;29.10;;;;;;5092215;28;20461;-68
2022/03/22 06:08:08;;;;;;;4.70;2.55;;;23.50;29.60;;;;;;5090636;28;20488;-65
2022/03/22 06:10:35;;;;;;;6.30;2.57;;;23.50;29.50;;;;;;5089820;28;20401;-62
2022/03/22 06:13:00;;;;;;;4.53;2.53;;;23.50;29.50;;;;;;5091426;28;20485;-63
2022/03/22 06:15:31;;;;;;;5.05;2.55;;;23.60;30.00;;;;;;5091578;28;20458;-62
2022/03/22 06:18:01;;;;;;;6.45;2.42;;;23.60;29.70;;;;;;5089544;28;20439;-62
2022/03/22 06:20:31;;;;;;;4.90;2.90;;;23.60;29.60;;;;;;5090960;28;20378;-63
2022/03/22 06:22:57;;;;;;;4.78;2.72;;;23.70;29.60;;;;;;5090899;28;20403;-63
2022/03/22 06:25:23;;;;;;;4.03;2.65;;;23.70;29.40;;;;;;5089016;28;20463;-64
2022/03/22 06:27:50;;;;;;;4.47;2.95;;;23.70;29.20;;;;;;5091029;28;20513;-62
2022/03/22 06:30:17;;;;;;;4.25;2.80;;;23.70;29.00;;;;;;5087064;28;20402;-64
2022/03/22 06:32:47;;;;;;;4.47;2.60;;;23.70;28.80;;;;;;5095219;28;20892;-64
2022/03/22 06:35:15;;;;;;;4.50;2.77;;;23.70;28.70;;;;;;5092003;28;20394;-63
2022/03/22 06:37:43;;;;;;;4.28;2.83;;;23.60;29.00;;;;;;5095447;28;20378;-64
2022/03/22 06:40:10;;;;;;;4.88;2.80;;;23.60;28.50;;;;;;5090223;28;20381;-64
2022/03/22 06:42:37;;;;;;;5.53;3.05;;;23.60;28.50;;;;;;5088653;28;20423;-64
2022/03/22 06:45:04;;;;;;;3.85;2.60;;;23.60;28.50;;;;;;5093919;28;20388;-63
2022/03/22 06:47:30;;;;;;;4.43;2.80;;;23.60;28.30;;;;;;5090978;28;20445;-62
2022/03/22 06:49:56;;;;;;;4.38;2.78;;;23.60;28.20;;;;;;5081393;28;20398;-65
2022/03/22 06:52:21;;;;;;;5.27;2.70;;;23.70;28.20;;;;;;5085591;28;20904;-64
2022/03/22 06:54:47;;;;;;;6.38;2.65;;;23.70;28.10;;;;;;5092278;28;20489;-65
2022/03/22 06:57:13;;;;;;;5.13;2.80;;;23.70;28.20;;;;;;5090373;28;20766;-65
2022/03/22 06:59:39;;;;;;;7.45;2.88;;;23.70;28.30;;;;;;5090625;28;20386;-64
2022/03/22 07:02:07;;;;;;;4.67;2.73;;;23.70;28.30;;;;;;5090729;28;20445;-64
2022/03/22 07:04:33;;;;;;;5.18;2.90;;;23.70;28.30;;;;;;5090843;28;20389;-64
2022/03/22 07:06:59;;;;;;;4.40;2.83;;;23.60;28.30;;;;;;5090638;28;20378;-64
2022/03/22 07:09:25;;;;;;;4.63;3.08;;;23.60;28.30;;;;;;5090871;28;20734;-65
2022/03/22 07:11:50;;;;;;;5.00;3.20;;;23.60;28.20;;;;;;5091044;28;20501;-64
2022/03/22 07:14:25;;;;;;;4.57;2.70;;;23.60;28.20;;;;;;5090587;28;20370;-64
2022/03/22 07:16:51;;;;;;;4.22;2.75;;;23.70;28.20;;;;;;5090267;28;20389;-64
2022/03/22 07:19:19;;;;;;;5.30;2.67;;;23.70;28.20;;;;;;5090904;28;20388;-64
2022/03/22 07:21:46;;;;;;;3.75;2.85;;;23.60;28.20;;;;;;5090801;28;20936;-65
2022/03/22 07:24:14;;;;;;;3.70;3.00;;;23.60;28.30;;;;;;5090649;28;20906;-63
2022/03/22 07:26:43;;;;;;;3.70;2.45;;;23.60;28.30;;;;;;5090293;28;20421;-64
2022/03/22 07:29:09;;;;;;;4.50;2.72;;;23.60;28.30;;;;;;5090802;28;20406;-65
2022/03/22 07:31:38;;;;;;;4.43;2.80;;;23.70;28.20;;;;;;5090841;28;20374;-64
2022/03/22 07:34:08;;;;;;;3.72;2.67;;;23.70;28.20;;;;;;5090647;28;20389;-64
2022/03/22 07:36:37;;;;;;;3.60;2.85;;;23.70;28.20;;;;;;5090413;28;20391;-63
2022/03/22 07:39:07;;;;;;;4.10;2.83;;;23.60;28.40;;;;;;5090681;28;20422;-63
2022/03/22 07:41:33;;;;;;;3.72;2.65;;;23.60;28.40;;;;;;5090538;28;20390;-65
2022/03/22 07:44:01;;;;;;;5.05;3.00;;;23.60;28.30;;;;;;5090483;28;20401;-64
2022/03/22 07:46:27;;;;;;;4.10;2.70;;;23.60;28.20;;;;;;5090353;28;20405;-64
2022/03/22 07:48:53;;;;;;;4.28;2.70;;;23.70;28.10;;;;;;5090030;28;20530;-63
2022/03/22 07:54:03;;;;;;;5.82;2.90;;;23.70;27.90;;;;;;5090657;28;20431;-64
2022/03/22 07:56:32;;;;;;;4.10;2.47;;;23.70;27.80;;;;;;5090078;28;20820;-63
2022/03/22 07:58:58;;;;;;;4.55;3.00;;;23.70;27.80;;;;;;5089701;28;20939;-65
2022/03/22 08:01:24;;;;;;;3.75;2.88;;;23.70;27.70;;;;;;5090115;28;20382;-64
2022/03/22 08:03:51;;;;;;;3.70;2.83;;;23.70;27.80;;;;;;5090580;28;20391;-64
2022/03/22 08:06:17;;;;;;;4.22;2.83;;;23.70;27.70;;;;;;5090368;28;20501;-64
2022/03/22 08:08:44;;;;;;;4.53;2.72;;;23.70;27.70;;;;;;5093349;28;20414;-63
2022/03/22 08:11:10;;;;;;;3.42;2.78;;;23.80;27.70;;;;;;5094157;28;20397;-63
2022/03/22 08:13:39;;;;;;;4.32;2.92;;;23.80;27.70;;;;;;5094107;28;20394;-64
2022/03/22 08:16:06;;;;;;;3.92;2.88;;;23.80;27.70;;;;;;5093917;28;20375;-64
2022/03/22 08:18:32;;;;;;;4.80;2.75;;;23.80;27.60;;;;;;5093561;28;20405;-63
2022/03/22 08:20:57;;;;;;;4.22;2.97;;;23.80;27.60;;;;;;5093843;28;20390;-64
2022/03/22 08:23:23;;;;;;;3.60;2.63;;;23.90;27.60;;;;;;5093981;28;20385;-64
2022/03/22 08:25:51;;;;;;;4.07;2.80;;;23.90;27.50;;;;;;5093885;28;20581;-64
2022/03/22 08:28:18;;;;;;;4.50;2.80;;;23.90;27.50;;;;;;5093484;28;20410;-65
2022/03/22 08:30:44;;;;;;;3.28;2.60;;;23.90;27.40;;;;;;5093327;28;20414;-63
2022/03/22 08:33:11;;;;;;;4.07;2.85;;;24.00;27.40;;;;;;5093717;28;20889;-63
2022/03/22 08:35:41;;;;;;;4.05;2.75;;;24.00;27.40;;;;;;5093670;28;20929;-63
2022/03/22 08:38:08;;;;;;;3.65;2.50;;;24.00;27.30;;;;;;5093501;28;20402;-64
2022/03/22 08:40:34;;;;;;;3.38;2.60;;;24.00;27.30;;;;;;5093406;28;20383;-62
2022/03/22 08:43:00;;;;;;;4.13;2.70;;;24.10;27.30;;;;;;5093142;28;20815;-63
2022/03/22 08:45:27;;;;;;;3.75;2.58;;;24.10;27.30;;;;;;5093735;28;20782;-63
2022/03/22 08:47:54;;;;;;;4.00;2.70;;;24.10;27.30;;;;;;5093155;28;20498;-63
2022/03/22 08:50:22;;;;;;;3.50;2.80;;;24.10;27.20;;;;;;5093091;28;20733;-63
2022/03/22 08:52:49;;;;;;;3.47;2.55;;;24.20;27.30;;;;;;5092846;28;20862;-65
2022/03/22 08:55:17;;;;;;;3.35;2.70;;;24.20;27.30;;;;;;5093284;28;20387;-64
2022/03/22 08:57:44;;;;;;;3.60;2.60;;;24.20;27.20;;;;;;5093233;28;20416;-66
2022/03/22 09:00:11;;;;;;;4.63;3.13;;;24.20;27.20;;;;;;5092877;28;20390;-65
2022/03/22 09:02:42;;;;;;;4.13;2.70;;;24.10;27.10;;;;;;5092874;28;20398;-67
2022/03/22 09:07:58;;;;;;;4.20;2.72;;;23.90;26.90;;;;;;5092939;28;20445;-64
2022/03/22 09:10:25;;;;;;;4.05;2.55;;;23.80;27.30;;;;;;5092821;28;20406;-66
2022/03/22 09:12:51;;;;;;;5.72;2.80;;;23.80;27.50;;;;;;5092529;28;20386;-63
2022/03/22 09:15:21;;;;;;;3.85;2.42;;;23.80;27.50;;;;;;5092908;28;20387;-63
2022/03/22 09:17:47;;;;;;;3.20;2.40;;;23.90;27.60;;;;;;5092609;28;20435;-63
2022/03/22 09:20:13;;;;;;;3.42;2.70;;;23.90;27.50;;;;;;5092500;28;20422;-63
2022/03/22 09:22:43;;;;;;;3.42;2.50;;;24.00;27.40;;;;;;5092430;28;20886;-63
2022/03/22 09:25:10;;;;;;;3.53;2.22;;;24.00;27.30;;;;;;5092835;28;20386;-63
2022/03/22 09:27:38;;;;;;;3.42;2.50;;;24.10;27.20;;;;;;5092546;28;20406;-62
2022/03/22 09:30:04;;;;;;;3.35;2.40;;;24.10;27.10;;;;;;5092401;28;20898;-63
2022/03/22 09:32:30;;;;;;;3.53;2.35;;;24.10;27.10;;;;;;5092529;28;20416;-63
2022/03/22 09:34:59;;;;;;;3.42;2.40;;;24.10;27.00;;;;;;5092021;28;20422;-63
2022/03/22 09:37:26;;;;;;;3.65;2.50;;;24.10;27.00;;;;;;5092567;28;20385;-63
2022/03/22 09:39:51;;;;;;;3.30;2.50;;;24.10;27.00;;;;;;5092488;28;20935;-64
2022/03/22 09:42:17;;;;;;;3.40;2.50;;;24.10;27.00;;;;;;5092522;28;20472;-63
2022/03/22 09:44:50;;;;;;;3.67;2.40;;;24.20;27.10;;;;;;5091792;28;20386;-63
2022/03/22 09:47:16;;;;;;;3.30;2.27;;;24.20;27.00;;;;;;5092169;28;21502;-63
2022/03/22 09:49:42;;;;;;;3.38;2.28;;;24.20;27.00;;;;;;5092009;28;20421;-63
2022/03/22 09:52:12;;;;;;;3.25;2.40;;;24.20;27.10;;;;;;5092091;28;20435;-65
2022/03/22 09:54:39;;;;;;;3.00;2.33;;;24.20;27.10;;;;;;5102967;28;20384;-62
2022/03/22 09:57:06;;;;;;;2.92;2.30;;;24.30;27.00;;;;;;5112260;28;20979;-63
2022/03/22 09:59:36;;;;;;;3.40;2.42;;;24.20;27.00;;;;;;5112835;28;20440;-63
2022/03/22 10:02:04;;;;;;;3.10;2.15;;;24.20;27.30;;;;;;5112224;28;20383;-62
2022/03/22 10:04:43;;;;;;;2.83;2.20;;;24.30;27.00;;;;;;5112121;28;20392;-63
2022/03/22 10:07:18;;;;;;;2.83;2.10;;;24.30;27.10;;;;;;5111924;28;20373;-63
2022/03/22 10:10:02;;;;;;;3.78;2.03;;;24.30;27.70;;;;;;5112153;28;20461;-63
2022/03/22 10:12:35;;;;;;;3.22;2.22;;;24.30;27.80;;;;;;5111953;28;20393;-62
2022/03/22 10:15:17;;;;;;;3.83;2.40;;;24.30;27.50;;;;;;5111971;28;20380;-61
2022/03/22 10:17:44;;;;;;;4.00;2.28;;;24.30;27.50;;;;;;5112222;28;20459;-63
2022/03/22 10:20:24;;;;;;;2.75;2.00;;;24.30;27.70;;;;;;5111683;28;20734;-63
2022/03/22 10:23:01;;;;;;;2.50;2.00;;;24.40;27.70;;;;;;5111552;28;20384;-63
2022/03/22 10:25:31;;;;;;;2.95;2.20;;;24.40;27.60;;;;;;5111639;28;20865;-61
2022/03/22 10:27:59;;;;;;;2.97;2.25;;;24.40;27.60;;;;;;5111699;28;20768;-63
2022/03/22 10:30:26;;;;;;;4.73;2.10;;;24.40;27.60;;;;;;5110945;28;20418;-62
2022/03/22 10:32:53;;;;;;;3.67;2.30;;;24.40;27.90;;;;;;5111365;28;20416;-64
2022/03/22 10:35:25;;;;;;;3.95;2.60;;;24.40;27.80;;;;;;5112072;28;20404;-63
2022/03/22 10:37:55;;;;;;;3.28;1.90;;;24.40;27.60;;;;;;5110624;28;20835;-65
2022/03/22 10:40:27;;;;;;;2.58;1.90;;;24.50;27.80;;;;;;5111780;28;20384;-63
2022/03/22 10:42:59;;;;;;;2.75;1.92;;;24.50;27.70;;;;;;5111329;28;20497;-63
2022/03/22 10:45:27;;;;;;;4.07;2.10;;;24.50;27.80;;;;;;5111681;28;20901;-64
2022/03/22 10:47:57;;;;;;;2.92;1.90;;;24.50;27.50;;;;;;5111275;28;20420;-63
2022/03/22 10:50:24;;;;;;;3.38;2.10;;;24.50;27.40;;;;;;5110922;28;20412;-64
2022/03/22 10:52:55;;;;;;;2.92;1.92;;;24.50;27.40;;;;;;5111135;28;20931;-64
2022/03/22 10:55:23;;;;;;;3.17;1.95;;;24.50;27.40;;;;;;5111651;28;20387;-64
2022/03/22 10:57:51;;;;;;;2.97;2.10;;;24.50;27.40;;;;;;5111535;28;20399;-63
2022/03/22 11:00:17;;;;;;;4.03;2.13;;;24.50;27.40;;;;;;5111215;28;20429;-62
2022/03/22 11:02:48;;;;;;;3.33;1.80;;;24.50;27.40;;;;;;5111349;28;20510;-62
2022/03/22 11:05:15;;;;;;;2.67;1.90;;;24.50;27.30;;;;;;5111385;28;20395;-63
2022/03/22 11:07:41;;;;;;;2.88;2.00;;;24.50;27.60;;;;;;5110188;28;20396;-63
2022/03/22 11:10:08;;;;;;;3.15;1.92;;;24.50;27.50;;;;;;5111292;28;20437;-62
2022/03/22 11:12:35;;;;;;;3.05;1.90;;;24.50;27.70;;;;;;5111316;28;20753;-63
2022/03/22 11:15:03;;;;;;;3.70;1.80;;;24.50;27.40;;;;;;5110890;28;20392;-64
2022/03/22 11:17:39;;;;;;;2.97;1.70;;;24.60;27.40;;;;;;5111074;28;20404;-62
2022/03/22 11:20:08;;;;;;;3.00;1.90;;;24.60;27.40;;;;;;5110955;28;20392;-62
2022/03/22 11:22:33;;;;;;;2.70;1.90;;;24.70;27.40;;;;;;5111057;28;20388;-63
2022/03/22 11:25:28;;;;;;;2.70;1.97;;;24.70;27.30;;;;;;5110649;28;20605;-63
2022/03/22 11:28:22;;;;;;;4.13;1.70;;;24.70;27.30;;;;;;5109045;28;20413;-64
2022/03/22 11:30:48;;;;;;;4.20;2.00;;;24.60;27.40;;;;;;5108339;28;20429;-63
2022/03/22 11:36:14;;;;;;;2.65;1.70;;;24.60;27.40;;;;;;5111969;28;20387;-63
2022/03/22 11:38:53;;;;;;;2.42;1.90;;;24.60;27.50;;;;;;5111735;28;20396;-63
2022/03/22 11:44:14;;;;;;;5.30;1.83;;;24.70;28.00;;;;;;5115924;28;20881;-63
2022/03/22 11:46:41;;;;;;;3.70;1.80;;;24.80;28.10;;;;;;5114109;28;20412;-64
2022/03/22 11:49:15;;;;;;;3.25;1.80;;;24.90;28.30;;;;;;5115277;28;20953;-63
2022/03/22 11:51:53;;;;;;;3.60;1.87;;;24.90;28.30;;;;;;5115610;28;20381;-63
2022/03/22 11:54:19;;;;;;;3.65;1.55;;;24.90;28.50;;;;;;5115329;28;20930;-63
2022/03/22 11:56:47;;;;;;;3.05;1.77;;;25.00;28.40;;;;;;5115137;28;20821;-63
2022/03/22 11:59:18;;;;;;;2.47;1.60;;;25.00;28.30;;;;;;5114967;28;20722;-63
2022/03/22 12:02:15;;;;;;;3.30;1.70;;;25.00;28.10;;;;;;5114106;28;20403;-64
2022/03/22 12:04:52;;;;;;;3.78;1.80;;;25.00;28.50;;;;;;5098261;28;20392;-62
2022/03/22 12:07:32;;;;;;;3.10;1.67;;;25.10;28.60;;;;;;5115228;28;20380;-63
2022/03/22 12:10:10;;;;;;;2.50;1.60;;;25.10;28.40;;;;;;5115179;28;20385;-63
2022/03/22 12:12:37;;;;;;;3.00;1.60;;;25.10;28.20;;;;;;5114844;28;20403;-63
2022/03/22 12:15:06;;;;;;;2.22;1.70;;;25.20;28.60;;;;;;5114833;28;20410;-63
2022/03/22 12:17:31;;;;;;;3.70;1.67;;;25.20;28.40;;;;;;5113923;28;20911;-64
2022/03/22 12:20:03;;;;;;;2.80;1.50;;;25.20;28.50;;;;;;5115070;28;20399;-64
2022/03/22 12:22:30;;;;;;;3.05;1.70;;;25.20;28.60;;;;;;5114823;28;20384;-63
2022/03/22 12:25:00;;;;;;;2.20;1.60;;;25.20;28.30;;;;;;5114535;28;20391;-63
2022/03/22 12:27:26;;;;;;;2.65;1.70;;;25.30;28.20;;;;;;5114789;28;20389;-63
2022/03/22 12:29:54;;;;;;;2.30;1.70;;;25.30;28.30;;;;;;5113662;28;20441;-63
2022/03/22 12:32:21;;;;;;;2.47;1.70;;;25.30;28.30;;;;;;5113696;28;20557;-63
2022/03/22 12:34:48;;;;;;;2.90;1.58;;;25.30;28.10;;;;;;5114213;28;20381;-63
2022/03/22 12:37:17;;;;;;;2.30;1.58;;;25.30;28.00;;;;;;5114368;28;20508;-65
2022/03/22 12:39:44;;;;;;;3.53;2.00;;;25.20;27.50;;;;;;5114842;28;20396;-63
2022/03/22 12:42:13;;;;;;;2.10;1.55;;;25.20;27.90;;;;;;5114166;28;20380;-64
2022/03/22 12:44:39;;;;;;;2.00;1.52;;;25.30;27.70;;;;;;5114447;28;20389;-63
2022/03/22 12:47:06;;;;;;;2.22;1.50;;;25.30;27.60;;;;;;5113578;28;20400;-64
2022/03/22 12:49:39;;;;;;;2.30;1.70;;;25.30;27.70;;;;;;5114475;28;20430;-64
2022/03/22 12:52:07;;;;;;;2.25;1.60;;;25.30;27.30;;;;;;5113757;28;20522;-64
2022/03/22 12:54:41;;;;;;;2.75;1.55;;;25.30;27.40;;;;;;5114294;28;20388;-64
2022/03/22 12:57:13;;;;;;;2.58;1.60;;;25.30;27.30;;;;;;5113767;28;20376;-64
2022/03/22 12:59:40;;;;;;;2.65;1.65;;;25.30;27.40;;;;;;5114180;28;20964;-63
2022/03/22 13:02:06;;;;;;;2.40;1.60;;;25.30;27.30;;;;;;5114020;28;20387;-63
2022/03/22 13:04:37;;;;;;;2.70;1.48;;;25.20;27.10;;;;;;5114127;28;20405;-63
2022/03/22 13:07:05;;;;;;;2.15;1.52;;;25.20;27.10;;;;;;5113148;28;20376;-63
2022/03/22 13:12:17;;;;;;;2.20;1.30;;;25.30;27.10;;;;;;5114148;28;20380;-64
2022/03/22 13:15:02;;;;;;;1.90;1.42;;;25.20;27.00;;;;;;5113945;28;20388;-64
2022/03/22 13:17:43;;;;;;;5.43;1.70;;;25.20;26.90;;;;;;5113807;28;20373;-63
2022/03/22 13:20:17;;;;;;;3.63;1.50;;;25.20;26.90;;;;;;5113805;28;20471;-64
2022/03/22 13:22:54;;;;;;;3.53;1.50;;;25.20;26.90;;;;;;5113860;28;20935;-65
2022/03/22 13:25:33;;;;;;;3.50;1.60;;;25.20;26.90;;;;;;5113435;28;20396;-64